createdAt,value
2022-08-29T00:01:12.701Z,55.61
2022-08-29T00:03:41.043Z,55.70
2022-08-29T00:06:09.263Z,55.96
2022-08-29T00:08:36.477Z,56.06
2022-08-29T00:11:04.050Z,56.18
2022-08-29T00:13:31.335Z,55.96
2022-08-29T00:15:58.863Z,56.12
2022-08-29T00:18:26.187Z,56.17
2022-08-29T00:20:53.812Z,56.13
2022-08-29T00:23:21.157Z,56.19
2022-08-29T00:25:51.810Z,56.04
2022-08-29T00:28:19.747Z,56.33
2022-08-29T00:30:46.931Z,56.38
2022-08-29T00:33:14.214Z,56.06
2022-08-29T00:35:43.170Z,56.35
2022-08-29T00:38:13.312Z,56.46
2022-08-29T00:40:51.850Z,56.09
2022-08-29T00:43:25.767Z,56.17
2022-08-29T00:46:14.781Z,56.20
2022-08-29T00:48:42.666Z,55.97
2022-08-29T00:51:15.226Z,55.96
2022-08-29T00:53:45.287Z,56.32
2022-08-29T00:56:15.782Z,56.24
2022-08-29T00:58:43.557Z,56.24
2022-08-29T01:01:10.645Z,56.31
2022-08-29T01:03:41.037Z,56.30
2022-08-29T01:06:11.248Z,56.54
2022-08-29T01:08:38.313Z,56.61
2022-08-29T01:11:24.183Z,56.62
2022-08-29T01:13:53.699Z,56.75
2022-08-29T01:16:21.480Z,56.66
2022-08-29T01:18:51.966Z,56.68
2022-08-29T01:21:34.324Z,56.76
2022-08-29T01:24:16.476Z,56.36
2022-08-29T01:26:45.643Z,56.54
2022-08-29T01:29:13.485Z,56.58
2022-08-29T01:31:57.340Z,56.79
2022-08-29T01:34:27.966Z,56.55
2022-08-29T01:37:03.051Z,56.50
2022-08-29T01:39:40.518Z,56.83
2022-08-29T01:42:13.257Z,56.65
2022-08-29T01:44:41.668Z,56.80
2022-08-29T01:47:09.130Z,56.75
2022-08-29T01:49:38.480Z,56.88
2022-08-29T01:52:08.764Z,56.54
2022-08-29T01:54:36.606Z,56.69
2022-08-29T01:57:04.014Z,56.71
2022-08-29T01:59:32.021Z,56.95
2022-08-29T02:02:19.879Z,57.32
2022-08-29T02:04:48.549Z,57.04
2022-08-29T02:07:17.818Z,57.26
2022-08-29T02:09:45.839Z,57.42
2022-08-29T02:12:21.793Z,57.43
2022-08-29T02:14:51.197Z,57.03
2022-08-29T02:17:25.585Z,57.30
2022-08-29T02:19:54.046Z,57.22
2022-08-29T02:22:21.572Z,57.32
2022-08-29T02:24:48.846Z,57.13
2022-08-29T02:27:15.843Z,57.29
2022-08-29T02:29:42.710Z,57.23
2022-08-29T02:32:12.262Z,57.34
2022-08-29T02:34:43.927Z,57.43
2022-08-29T02:37:12.291Z,57.61
2022-08-29T02:39:39.555Z,57.49
2022-08-29T02:42:06.927Z,57.67
2022-08-29T02:44:34.114Z,57.34
2022-08-29T02:47:01.376Z,57.13
2022-08-29T02:49:28.592Z,57.34
2022-08-29T02:51:57.818Z,57.44
2022-08-29T02:54:24.991Z,57.64
2022-08-29T02:56:52.585Z,57.44
2022-08-29T02:59:19.906Z,57.69
2022-08-29T03:01:47.051Z,57.52
2022-08-29T03:04:14.260Z,57.50
2022-08-29T03:06:41.721Z,57.52
2022-08-29T03:09:09.118Z,57.46
2022-08-29T03:11:36.244Z,57.60
2022-08-29T03:14:03.397Z,57.58
2022-08-29T03:16:30.570Z,57.73
2022-08-29T03:18:57.824Z,57.29
2022-08-29T03:21:26.707Z,57.47
2022-08-29T03:23:56.560Z,57.44
2022-08-29T03:26:24.061Z,57.73
2022-08-29T03:28:51.327Z,57.53
2022-08-29T03:31:19.113Z,57.31
2022-08-29T03:33:46.305Z,57.46
2022-08-29T03:36:14.229Z,57.32
2022-08-29T03:38:48.136Z,57.55
2022-08-29T03:41:24.764Z,57.74
2022-08-29T03:43:57.158Z,57.51
2022-08-29T03:46:29.357Z,57.50
2022-08-29T03:48:56.293Z,57.61
2022-08-29T03:51:29.352Z,57.72
2022-08-29T03:53:56.886Z,57.25
2022-08-29T03:56:24.438Z,57.41
2022-08-29T03:58:53.250Z,57.40
2022-08-29T04:01:24.631Z,57.61
2022-08-29T04:03:52.320Z,57.36
2022-08-29T04:06:20.361Z,57.56
2022-08-29T04:08:47.925Z,57.61
2022-08-29T04:11:16.281Z,57.43
2022-08-29T04:13:44.949Z,57.47
2022-08-29T04:16:13.680Z,57.41
2022-08-29T04:18:40.564Z,57.27
2022-08-29T04:21:07.879Z,57.36
2022-08-29T04:23:36.267Z,57.54
2022-08-29T04:26:27.121Z,57.13
2022-08-29T04:28:51.262Z,57.55
2022-08-29T04:31:20.428Z,57.46
2022-08-29T04:33:48.497Z,57.44
2022-08-29T04:36:15.572Z,57.40
2022-08-29T04:38:43.129Z,57.55
2022-08-29T04:41:15.463Z,57.73
2022-08-29T04:43:43.203Z,57.33
2022-08-29T04:46:24.109Z,57.26
2022-08-29T04:48:52.687Z,57.69
2022-08-29T04:51:19.727Z,57.12
2022-08-29T04:53:46.771Z,57.34
2022-08-29T04:56:14.121Z,57.23
2022-08-29T04:58:44.150Z,57.33
2022-08-29T05:01:16.395Z,57.26
2022-08-29T05:03:43.793Z,57.40
2022-08-29T05:06:12.871Z,57.10
2022-08-29T05:08:41.940Z,57.45
2022-08-29T05:11:22.711Z,57.20
2022-08-29T05:13:50.357Z,57.12
2022-08-29T05:16:18.199Z,57.10
2022-08-29T05:18:46.335Z,57.37
2022-08-29T05:21:15.351Z,56.86
2022-08-29T05:23:42.175Z,57.26
2022-08-29T05:26:09.345Z,57.34
2022-08-29T05:28:36.745Z,57.15
2022-08-29T05:31:04.014Z,56.74
2022-08-29T05:33:31.220Z,57.05
2022-08-29T05:35:58.799Z,56.99
2022-08-29T05:38:25.576Z,56.98
2022-08-29T05:40:52.306Z,56.84
2022-08-29T05:43:20.339Z,56.91
2022-08-29T05:45:47.122Z,56.65
2022-08-29T05:48:15.138Z,56.49
2022-08-29T05:50:43.734Z,56.89
2022-08-29T05:53:13.001Z,56.37
2022-08-29T05:55:44.025Z,56.41
2022-08-29T05:58:11.383Z,56.40
2022-08-29T06:00:40.090Z,55.88
2022-08-29T06:03:08.038Z,56.01
2022-08-29T06:05:34.780Z,56.45
2022-08-29T06:08:01.870Z,55.97
2022-08-29T06:10:28.817Z,55.90
2022-08-29T06:12:55.607Z,55.75
2022-08-29T06:15:22.598Z,56.03
2022-08-29T06:17:49.689Z,55.71
2022-08-29T06:20:16.478Z,55.78
2022-08-29T06:22:43.401Z,55.78
2022-08-29T06:25:34.996Z,56.05
2022-08-29T06:27:57.236Z,55.63
2022-08-29T06:30:23.958Z,55.67
2022-08-29T06:32:50.698Z,55.94
2022-08-29T06:35:17.404Z,55.72
2022-08-29T06:37:44.381Z,55.56
2022-08-29T06:40:11.714Z,55.41
2022-08-29T06:42:38.551Z,55.55
2022-08-29T06:45:06.989Z,55.66
2022-08-29T06:47:34.467Z,55.39
2022-08-29T06:50:01.264Z,55.43
2022-08-29T06:52:28.731Z,55.55
2022-08-29T06:54:55.571Z,55.49
2022-08-29T06:57:22.547Z,55.71
2022-08-29T06:59:49.503Z,55.79
2022-08-29T07:02:16.393Z,55.56
2022-08-29T07:04:44.375Z,55.25
2022-08-29T07:07:11.315Z,55.63
2022-08-29T07:09:38.182Z,55.67
2022-08-29T07:12:06.096Z,55.81
2022-08-29T07:14:33.054Z,55.47
2022-08-29T07:17:00.799Z,55.66
2022-08-29T07:19:27.722Z,55.62
2022-08-29T07:21:57.951Z,55.37
2022-08-29T07:24:25.279Z,55.04
2022-08-29T07:26:52.501Z,55.33
2022-08-29T07:29:22.430Z,54.83
2022-08-29T07:31:49.379Z,55.40
2022-08-29T07:34:20.624Z,54.98
2022-08-29T07:36:47.858Z,55.37
2022-08-29T07:39:16.871Z,55.32
2022-08-29T07:41:44.542Z,54.92
2022-08-29T07:44:12.980Z,55.40
2022-08-29T07:46:39.817Z,55.27
2022-08-29T07:49:07.220Z,54.77
2022-08-29T07:51:34.826Z,54.90
2022-08-29T07:54:01.858Z,54.64
2022-08-29T07:56:37.819Z,54.65
2022-08-29T07:59:06.126Z,54.82
2022-08-29T08:01:33.307Z,54.75
2022-08-29T08:04:00.168Z,54.48
2022-08-29T08:06:27.691Z,54.71
2022-08-29T08:08:55.496Z,54.88
2022-08-29T08:11:23.514Z,54.38
2022-08-29T08:13:50.218Z,54.53
2022-08-29T08:16:20.427Z,54.43
2022-08-29T08:18:47.259Z,54.13
2022-08-29T08:21:14.596Z,54.13
2022-08-29T08:23:41.873Z,53.56
2022-08-29T08:26:09.931Z,53.47
2022-08-29T08:28:37.033Z,53.51
2022-08-29T08:31:07.559Z,52.99
2022-08-29T08:33:35.874Z,53.12
2022-08-29T08:36:06.183Z,52.91
2022-08-29T08:38:33.003Z,52.32
2022-08-29T08:41:42.092Z,52.22
2022-08-29T08:44:28.937Z,51.87
2022-08-29T08:47:01.684Z,51.61
2022-08-29T08:49:40.074Z,51.55
2022-08-29T08:52:11.242Z,51.08
2022-08-29T08:54:50.616Z,50.69
2022-08-29T08:57:18.395Z,50.33
2022-08-29T08:59:48.262Z,50.04
2022-08-29T09:02:49.042Z,50.21
2022-08-29T09:05:31.031Z,49.80
2022-08-29T09:08:16.265Z,49.31
2022-08-29T09:11:04.754Z,48.83
2022-08-29T09:14:06.687Z,49.14
2022-08-29T09:16:40.812Z,48.63
2022-08-29T09:19:10.965Z,48.28
2022-08-29T09:21:46.625Z,47.32
2022-08-29T09:24:23.758Z,47.20
2022-08-29T09:26:50.542Z,47.45
2022-08-29T09:29:21.091Z,46.81
2022-08-29T09:32:05.905Z,46.78
2022-08-29T09:35:06.901Z,46.90
2022-08-29T09:37:33.177Z,46.32
2022-08-29T09:40:07.536Z,46.16
2022-08-29T09:42:53.511Z,46.03
2022-08-29T09:45:25.194Z,45.87
2022-08-29T09:48:18.808Z,46.09
2022-08-29T09:50:46.565Z,45.64
2022-08-29T09:53:24.621Z,45.41
2022-08-29T09:55:52.503Z,45.49
2022-08-29T09:58:19.178Z,45.09
2022-08-29T10:01:07.559Z,45.26
2022-08-29T10:03:39.149Z,44.85
2022-08-29T10:06:16.783Z,44.59
2022-08-29T10:08:56.066Z,44.27
2022-08-29T10:11:31.597Z,44.10
2022-08-29T10:14:06.135Z,43.95
2022-08-29T10:16:52.080Z,43.80
2022-08-29T10:19:22.927Z,43.23
2022-08-29T10:22:06.170Z,43.36
2022-08-29T10:24:55.066Z,43.13
2022-08-29T10:27:37.471Z,43.04
2022-08-29T10:30:06.908Z,42.60
2022-08-29T10:33:09.842Z,41.91
2022-08-29T10:35:44.231Z,41.80
2022-08-29T10:38:26.206Z,42.16
2022-08-29T10:41:03.183Z,42.34
2022-08-29T10:43:39.274Z,42.12
2022-08-29T10:46:32.866Z,42.22
2022-08-29T10:49:17.938Z,41.72
2022-08-29T10:52:10.786Z,41.99
2022-08-29T10:54:49.445Z,41.29
2022-08-29T10:57:41.556Z,41.61
2022-08-29T11:00:19.407Z,40.99
2022-08-29T11:03:09.202Z,40.90
2022-08-29T11:05:44.917Z,40.77
2022-08-29T11:08:22.217Z,41.02
2022-08-29T11:10:52.163Z,41.01
2022-08-29T11:13:25.099Z,40.80
2022-08-29T11:16:07.740Z,40.67
2022-08-29T11:18:40.787Z,40.45
2022-08-29T11:21:22.314Z,39.89
2022-08-29T11:23:49.166Z,39.34
2022-08-29T11:26:57.487Z,39.35
2022-08-29T11:29:27.314Z,39.16
2022-08-29T11:32:20.786Z,38.76
2022-08-29T11:35:07.521Z,39.19
2022-08-29T11:38:11.424Z,39.29
2022-08-29T11:43:49.342Z,39.31
2022-08-29T11:46:17.169Z,39.79
2022-08-29T11:48:48.118Z,39.75
2022-08-29T11:51:38.396Z,39.91
2022-08-29T11:54:25.015Z,40.53
2022-08-29T11:57:12.176Z,40.32
2022-08-29T11:59:56.997Z,39.95
2022-08-29T12:02:32.779Z,39.88
2022-08-29T12:05:01.682Z,39.88
2022-08-29T12:07:50.027Z,38.67
2022-08-29T12:10:19.640Z,38.44
2022-08-29T12:12:48.924Z,38.44
2022-08-29T12:15:27.101Z,38.05
2022-08-29T12:18:02.353Z,37.57
2022-08-29T12:20:30.266Z,37.83
2022-08-29T12:23:12.755Z,36.89
2022-08-29T12:25:43.310Z,36.44
2022-08-29T12:28:16.570Z,37.05
2022-08-29T12:30:49.884Z,36.82
2022-08-29T12:33:36.407Z,36.95
2022-08-29T12:36:16.331Z,36.67
2022-08-29T12:38:58.450Z,36.81
2022-08-29T12:41:27.952Z,36.80
2022-08-29T12:43:57.362Z,36.51
2022-08-29T12:46:51.206Z,36.52
2022-08-29T12:49:29.609Z,36.62
2022-08-29T12:51:58.442Z,35.88
2022-08-29T12:54:41.402Z,35.39
2022-08-29T12:57:20.739Z,35.17
2022-08-29T12:59:49.666Z,35.46
2022-08-29T13:02:26.651Z,34.70
2022-08-29T13:04:53.576Z,34.90
2022-08-29T13:09:59.139Z,34.45
2022-08-29T13:12:31.932Z,34.49
2022-08-29T13:15:03.214Z,34.22
2022-08-29T13:17:35.282Z,34.36
2022-08-29T13:20:43.368Z,34.13
2022-08-29T13:23:16.634Z,34.14
2022-08-29T13:25:48.551Z,34.53
2022-08-29T13:28:29.736Z,34.31
2022-08-29T13:31:07.079Z,34.25
2022-08-29T13:33:36.005Z,34.41
2022-08-29T13:36:44.942Z,34.77
2022-08-29T13:39:26.717Z,34.74
2022-08-29T13:42:03.092Z,35.13
2022-08-29T13:44:54.923Z,35.43
2022-08-29T13:47:26.352Z,35.19
2022-08-29T13:50:02.206Z,34.76
2022-08-29T13:52:31.524Z,34.87
2022-08-29T13:55:06.324Z,34.76
2022-08-29T13:57:38.462Z,34.32
2022-08-29T14:00:32.370Z,33.71
2022-08-29T14:03:05.702Z,33.80
2022-08-29T14:05:38.362Z,34.09
2022-08-29T14:08:06.636Z,34.25
2022-08-29T14:10:33.858Z,33.97
2022-08-29T14:13:05.655Z,33.79
2022-08-29T14:15:33.341Z,34.04
2022-08-29T14:18:01.215Z,34.07
2022-08-29T14:20:28.832Z,34.14
2022-08-29T14:22:56.450Z,33.92
2022-08-29T14:25:24.173Z,33.84
2022-08-29T14:27:55.823Z,34.06
2022-08-29T14:30:25.780Z,34.01
2022-08-29T14:32:53.210Z,33.77
2022-08-29T14:35:26.375Z,33.81
2022-08-29T14:38:00.181Z,33.31
2022-08-29T14:40:28.787Z,33.66
2022-08-29T14:42:57.127Z,33.95
2022-08-29T14:45:23.929Z,33.61
2022-08-29T14:47:59.040Z,33.81
2022-08-29T14:50:26.194Z,33.56
2022-08-29T14:52:53.869Z,33.84
2022-08-29T14:55:21.424Z,34.13
2022-08-29T14:57:49.113Z,34.75
2022-08-29T15:00:27.952Z,34.59
2022-08-29T15:05:36.587Z,34.65
2022-08-29T15:08:06.610Z,35.01
2022-08-29T15:10:34.393Z,35.01
2022-08-29T15:13:01.953Z,34.58
2022-08-29T15:15:31.907Z,34.81
2022-08-29T15:18:00.426Z,34.63
2022-08-29T15:20:37.144Z,34.45
2022-08-29T15:23:04.888Z,34.31
2022-08-29T15:25:31.700Z,33.61
2022-08-29T15:27:58.540Z,33.58
2022-08-29T15:30:25.782Z,33.44
2022-08-29T15:32:52.988Z,32.99
2022-08-29T15:35:20.069Z,33.16
2022-08-29T15:37:46.821Z,33.06
2022-08-29T15:40:14.368Z,27.77
2022-08-29T15:42:41.487Z,24.30
2022-08-29T15:45:12.285Z,27.64
2022-08-29T15:47:40.176Z,29.46
2022-08-29T15:50:13.886Z,30.16
2022-08-29T15:52:40.593Z,24.34
2022-08-29T15:55:07.832Z,27.06
2022-08-29T15:57:40.220Z,28.96
2022-08-29T16:00:30.294Z,30.51
2022-08-29T16:02:59.133Z,31.87
2022-08-29T16:05:26.002Z,32.37
2022-08-29T16:07:53.226Z,33.35
2022-08-29T16:10:20.082Z,34.09
2022-08-29T16:12:46.814Z,34.56
2022-08-29T16:15:13.667Z,34.93
2022-08-29T16:17:40.533Z,35.41
2022-08-29T16:20:11.528Z,36.12
2022-08-29T16:22:39.882Z,36.62
2022-08-29T16:25:08.821Z,36.42
2022-08-29T16:27:36.211Z,30.19
2022-08-29T16:30:04.333Z,26.39
2022-08-29T16:32:31.646Z,24.60
2022-08-29T16:34:58.720Z,25.08
2022-08-29T16:37:25.487Z,27.95
2022-08-29T16:39:52.275Z,30.16
2022-08-29T16:42:19.082Z,32.21
2022-08-29T16:44:45.876Z,33.26
2022-08-29T16:47:12.826Z,34.23
2022-08-29T16:49:39.790Z,34.76
2022-08-29T16:52:06.699Z,32.33
2022-08-29T16:54:33.897Z,29.99
2022-08-29T16:57:00.683Z,31.15
2022-08-29T16:59:27.691Z,31.98
2022-08-29T17:01:55.772Z,33.37
2022-08-29T17:04:25.313Z,34.50
2022-08-29T17:06:52.445Z,35.39
2022-08-29T17:09:21.581Z,36.56
2022-08-29T17:11:49.035Z,36.92
2022-08-29T17:14:16.373Z,37.84
2022-08-29T17:16:45.834Z,37.95
2022-08-29T17:19:13.478Z,38.78
2022-08-29T17:21:40.248Z,38.83
2022-08-29T17:24:07.265Z,39.05
2022-08-29T17:26:36.243Z,39.57
2022-08-29T17:29:12.342Z,39.77
2022-08-29T17:31:39.589Z,40.10
2022-08-29T17:34:08.515Z,40.47
2022-08-29T17:36:40.472Z,41.18
2022-08-29T17:39:08.113Z,41.19
2022-08-29T17:41:37.398Z,41.57
2022-08-29T17:44:10.021Z,42.10
2022-08-29T17:46:36.862Z,42.67
2022-08-29T17:49:07.910Z,43.06
2022-08-29T17:51:35.766Z,43.09
2022-08-29T17:54:04.424Z,43.50
2022-08-29T17:56:44.407Z,43.74
2022-08-29T17:59:12.698Z,44.35
2022-08-29T18:01:39.911Z,44.81
2022-08-29T18:04:06.679Z,45.06
2022-08-29T18:06:33.430Z,45.43
2022-08-29T18:09:00.471Z,45.52
2022-08-29T18:11:27.315Z,45.84
2022-08-29T18:13:55.139Z,46.00
2022-08-29T18:16:22.048Z,46.32
2022-08-29T18:18:49.265Z,46.39
2022-08-29T18:21:18.562Z,46.68
2022-08-29T18:23:45.848Z,46.76
2022-08-29T18:26:13.395Z,47.12
2022-08-29T18:28:41.030Z,47.05
2022-08-29T18:31:09.081Z,47.91
2022-08-29T18:33:59.140Z,47.71
2022-08-29T18:36:23.955Z,48.02
2022-08-29T18:38:50.880Z,47.89
2022-08-29T18:41:17.824Z,48.14
2022-08-29T18:43:44.746Z,48.41
2022-08-29T18:46:11.856Z,48.39
2022-08-29T18:48:39.769Z,48.22
2022-08-29T18:51:06.718Z,48.38
2022-08-29T18:53:33.980Z,48.61
2022-08-29T18:56:01.395Z,48.67
2022-08-29T18:58:30.959Z,48.93
2022-08-29T19:00:59.012Z,48.95
2022-08-29T19:03:25.894Z,48.95
2022-08-29T19:05:53.962Z,49.39
2022-08-29T19:08:24.654Z,49.62
2022-08-29T19:10:55.572Z,49.63
2022-08-29T19:13:25.365Z,49.73
2022-08-29T19:15:56.037Z,49.66
2022-08-29T19:18:22.867Z,49.48
2022-08-29T19:21:07.846Z,49.93
2022-08-29T19:23:41.046Z,50.06
2022-08-29T19:26:13.405Z,50.13
2022-08-29T19:28:41.596Z,50.25
2022-08-29T19:31:08.641Z,50.05
2022-08-29T19:33:42.758Z,49.97
2022-08-29T19:36:19.079Z,50.25
2022-08-29T19:38:50.090Z,50.80
2022-08-29T19:41:21.291Z,50.61
2022-08-29T19:43:48.854Z,50.52
2022-08-29T19:46:24.476Z,50.84
2022-08-29T19:48:52.894Z,50.87
2022-08-29T19:51:26.382Z,50.86
2022-08-29T19:54:02.134Z,50.97
2022-08-29T19:56:35.367Z,51.13
2022-08-29T19:59:07.806Z,51.10
2022-08-29T20:01:40.489Z,51.35
2022-08-29T20:04:13.948Z,51.92
2022-08-29T20:06:45.613Z,51.58
2022-08-29T20:11:50.008Z,51.74
2022-08-29T20:14:22.594Z,51.61
2022-08-29T20:16:54.485Z,51.82
2022-08-29T20:19:25.413Z,52.12
2022-08-29T20:21:55.024Z,52.10
2022-08-29T20:24:26.843Z,52.35
2022-08-29T20:26:59.200Z,52.48
2022-08-29T20:32:09.393Z,52.50
2022-08-29T20:34:41.802Z,53.02
2022-08-29T20:37:09.822Z,52.78
2022-08-29T20:39:43.979Z,52.92
2022-08-29T20:42:13.414Z,52.59
2022-08-29T20:44:45.418Z,52.99
2022-08-29T20:47:19.637Z,52.62
2022-08-29T20:49:54.405Z,52.75
2022-08-29T20:52:26.838Z,53.33
2022-08-29T20:54:58.172Z,53.01
2022-08-29T20:57:30.032Z,53.25
2022-08-29T21:00:04.208Z,53.70
2022-08-29T21:02:57.000Z,53.50
2022-08-29T21:05:48.582Z,53.34
2022-08-29T21:08:25.131Z,53.79
2022-08-29T21:10:57.978Z,53.32
2022-08-29T21:13:32.662Z,53.66
2022-08-29T21:16:06.127Z,53.85
2022-08-29T21:18:38.360Z,53.55
2022-08-29T21:21:14.238Z,53.54
2022-08-29T21:23:42.095Z,53.95
2022-08-29T21:26:10.114Z,53.88
2022-08-29T21:28:38.003Z,54.08
2022-08-29T21:31:12.274Z,53.92
2022-08-29T21:33:41.680Z,54.10
2022-08-29T21:36:18.731Z,54.04
2022-08-29T21:38:46.533Z,53.77
2022-08-29T21:41:14.162Z,53.63
2022-08-29T21:43:41.099Z,54.02
2022-08-29T21:46:25.121Z,54.29
2022-08-29T21:48:56.400Z,54.29
2022-08-29T21:51:23.874Z,54.14
2022-08-29T21:53:52.316Z,54.01
2022-08-29T21:56:19.613Z,54.07
2022-08-29T21:58:52.771Z,54.17
2022-08-29T22:01:30.146Z,54.14
2022-08-29T22:03:59.243Z,54.17
2022-08-29T22:06:27.601Z,54.40
2022-08-29T22:08:55.051Z,54.40
2022-08-29T22:11:37.197Z,54.12
2022-08-29T22:14:05.774Z,54.15
2022-08-29T22:16:32.663Z,54.55
2022-08-29T22:19:05.259Z,54.96
2022-08-29T22:21:36.502Z,54.53
2022-08-29T22:24:04.469Z,54.17
2022-08-29T22:26:31.298Z,54.19
2022-08-29T22:28:58.099Z,54.49
2022-08-29T22:31:25.450Z,54.46
2022-08-29T22:33:52.470Z,54.46
2022-08-29T22:36:19.545Z,54.61
2022-08-29T22:38:47.786Z,54.38
2022-08-29T22:41:22.870Z,54.17
2022-08-29T22:44:08.752Z,54.24
2022-08-29T22:46:38.149Z,54.66
2022-08-29T22:49:04.935Z,55.03
2022-08-29T22:51:31.719Z,54.67
2022-08-29T22:54:17.087Z,54.57
2022-08-29T22:56:45.429Z,55.00
2022-08-29T22:59:13.490Z,54.84
2022-08-29T23:01:42.565Z,55.14
2022-08-29T23:04:09.416Z,55.17
2022-08-29T23:06:36.418Z,54.91
2022-08-29T23:09:04.040Z,54.96
2022-08-29T23:11:31.283Z,54.82
2022-08-29T23:13:58.029Z,55.04
2022-08-29T23:16:24.799Z,54.88
2022-08-29T23:18:51.897Z,55.08
2022-08-29T23:21:19.430Z,54.90
2022-08-29T23:23:46.382Z,54.73
2022-08-29T23:26:13.110Z,54.96
2022-08-29T23:28:40.383Z,54.69
2022-08-29T23:31:07.192Z,54.62
2022-08-29T23:33:33.902Z,55.17
2022-08-29T23:36:00.843Z,54.71
2022-08-29T23:38:27.573Z,55.06
2022-08-29T23:40:56.795Z,54.84
2022-08-29T23:43:24.531Z,54.79
2022-08-29T23:45:51.949Z,54.69
2022-08-29T23:48:19.020Z,54.88
2022-08-29T23:50:53.774Z,54.66
2022-08-29T23:53:21.972Z,54.39
2022-08-29T23:55:49.554Z,54.75
2022-08-29T23:58:17.128Z,54.84
